Kansas City, Kansas
Current Conditions -  °F | °C
As of 3:54 PM on Monday 24 Nov 2014 (Local Time) from KMKC Reporting Station
Overcast Overcast  
Wind Chill: 34°   Ceiling: 4500
Heat Index: 40°   Visibility: 10mi
Dew Point: 24°   Wind: 9mph
Humidity: 53%   Direction: 270°W
Pressure: 29.88"   Gusts: NA
Location:  39.11°N, 94.63°W
Report Text: KMKC 242154Z 27008KT 10SM OVC045 04/M04 A2988 RMK AO2 SLP121 T00441044
Loading
Personal Weather Stations






























Interactive Weather Map New forecast layout! Learn more

10-Day Weather Forecast

Advertisements
Track Severe Weather on mobile